createdAt,value
2022-10-08T00:02:09.518Z,6.60
2022-10-08T00:04:37.008Z,4.57
2022-10-08T00:07:04.439Z,7.13
2022-10-08T00:09:31.856Z,4.77
2022-10-08T00:11:59.180Z,4.28
2022-10-08T00:14:26.528Z,6.70
2022-10-08T00:16:55.280Z,6.80
2022-10-08T00:19:22.693Z,5.95
2022-10-08T00:21:53.153Z,5.07
2022-10-08T00:24:21.225Z,6.20
2022-10-08T00:26:48.647Z,7.53
2022-10-08T00:29:17.806Z,6.53
2022-10-08T00:31:46.706Z,5.90
2022-10-08T00:34:16.827Z,6.93
2022-10-08T00:36:44.334Z,7.03
2022-10-08T00:39:13.395Z,5.90
2022-10-08T00:41:41.780Z,7.28
2022-10-08T00:44:29.053Z,8.73
2022-10-08T00:46:56.510Z,7.77
2022-10-08T00:49:25.912Z,9.38
2022-10-08T00:51:54.419Z,7.57
2022-10-08T00:54:22.714Z,5.03
2022-10-08T00:56:51.786Z,8.40
2022-10-08T00:59:19.815Z,7.03
2022-10-08T01:01:47.326Z,7.65
2022-10-08T01:04:15.596Z,5.97
2022-10-08T01:06:48.251Z,8.98
2022-10-08T01:09:19.037Z,7.85
2022-10-08T01:11:48.948Z,9.20
2022-10-08T01:14:21.879Z,7.93
2022-10-08T01:16:54.155Z,9.38
2022-10-08T01:19:35.970Z,5.80
2022-10-08T01:22:09.847Z,7.22
2022-10-08T01:24:58.348Z,7.10
2022-10-08T01:27:32.329Z,5.22
2022-10-08T01:30:02.247Z,6.95
2022-10-08T01:32:30.731Z,7.60
2022-10-08T01:35:00.072Z,6.13
2022-10-08T01:37:31.789Z,8.43
2022-10-08T01:40:00.422Z,8.13
2022-10-08T01:42:28.591Z,7.68
2022-10-08T01:44:59.770Z,5.82
2022-10-08T01:47:28.903Z,5.35
2022-10-08T01:49:58.530Z,8.03
2022-10-08T01:52:27.882Z,8.48
2022-10-08T01:54:58.743Z,5.85
2022-10-08T01:57:27.335Z,6.72
2022-10-08T01:59:56.337Z,6.28
2022-10-08T02:02:26.047Z,9.27
2022-10-08T02:04:54.897Z,7.93
2022-10-08T02:07:24.049Z,4.30
2022-10-08T02:09:52.545Z,6.32
2022-10-08T02:12:20.216Z,7.97
2022-10-08T02:14:48.772Z,7.23
2022-10-08T02:17:22.310Z,9.05
2022-10-08T02:19:54.338Z,6.20
2022-10-08T02:22:23.885Z,6.70
2022-10-08T02:24:53.573Z,7.05
2022-10-08T02:27:24.943Z,6.83
2022-10-08T02:29:56.223Z,7.50
2022-10-08T02:32:28.936Z,9.73
2022-10-08T02:35:00.446Z,7.50
2022-10-08T02:37:30.026Z,5.22
2022-10-08T02:40:00.450Z,6.00
2022-10-08T02:42:28.976Z,7.47
2022-10-08T02:44:58.784Z,6.93
2022-10-08T02:47:28.168Z,7.05
2022-10-08T02:49:57.502Z,8.98
2022-10-08T02:52:28.172Z,6.50
2022-10-08T02:54:56.291Z,6.28
2022-10-08T02:57:27.522Z,6.47
2022-10-08T02:59:55.029Z,7.57
2022-10-08T03:02:27.603Z,6.82
2022-10-08T03:04:59.276Z,5.97
2022-10-08T03:07:29.712Z,7.35
2022-10-08T03:09:57.639Z,6.63
2022-10-08T03:12:25.556Z,7.40
2022-10-08T03:14:53.216Z,7.50
2022-10-08T03:17:23.620Z,7.40
2022-10-08T03:19:51.171Z,6.28
2022-10-08T03:22:18.654Z,6.20
2022-10-08T03:24:47.404Z,8.60
2022-10-08T03:27:14.803Z,6.65
2022-10-08T03:29:42.188Z,8.17
2022-10-08T03:32:09.547Z,5.07
2022-10-08T03:34:36.929Z,5.28
2022-10-08T03:37:04.368Z,5.93
2022-10-08T03:39:31.851Z,6.90
2022-10-08T03:42:00.579Z,6.13
2022-10-08T03:44:28.028Z,5.55
2022-10-08T03:46:55.409Z,5.90
2022-10-08T03:49:22.920Z,6.28
2022-10-08T03:51:50.304Z,4.82
2022-10-08T03:54:17.695Z,7.00
2022-10-08T03:56:45.173Z,7.55
2022-10-08T03:59:13.892Z,3.97
2022-10-08T04:01:41.460Z,5.78
2022-10-08T04:04:08.943Z,4.88
2022-10-08T04:06:36.312Z,5.70
2022-10-08T04:09:03.722Z,6.25
2022-10-08T04:11:31.283Z,4.95
2022-10-08T04:13:58.624Z,6.05
2022-10-08T04:16:27.341Z,8.00
2022-10-08T04:18:54.719Z,7.80
2022-10-08T04:21:22.124Z,4.35
2022-10-08T04:23:50.287Z,4.63
2022-10-08T04:26:18.033Z,4.93
2022-10-08T04:28:46.275Z,3.20
2022-10-08T04:31:16.552Z,5.03
2022-10-08T04:33:45.743Z,4.53
2022-10-08T04:36:13.889Z,4.57
2022-10-08T04:38:42.672Z,4.00
2022-10-08T04:41:10.828Z,5.63
2022-10-08T04:43:38.612Z,8.50
2022-10-08T04:46:07.172Z,4.80
2022-10-08T04:48:34.699Z,5.20
2022-10-08T04:51:08.058Z,5.25
2022-10-08T04:53:37.612Z,8.63
2022-10-08T04:56:09.444Z,4.87
2022-10-08T04:58:36.838Z,5.00
2022-10-08T05:01:04.576Z,5.10
2022-10-08T05:03:32.035Z,8.60
2022-10-08T05:05:59.410Z,4.68
2022-10-08T05:08:29.239Z,5.20
2022-10-08T05:10:57.093Z,4.05
2022-10-08T05:13:24.527Z,3.78
2022-10-08T05:15:51.975Z,6.05
2022-10-08T05:18:19.547Z,6.18
2022-10-08T05:20:47.212Z,6.60
2022-10-08T05:23:14.575Z,4.32
2022-10-08T05:25:43.742Z,5.43
2022-10-08T05:28:11.281Z,5.03
2022-10-08T05:30:38.713Z,6.95
2022-10-08T05:33:06.073Z,4.70
2022-10-08T05:35:33.420Z,5.30
2022-10-08T05:38:00.779Z,7.07
2022-10-08T05:40:29.558Z,5.07
2022-10-08T05:42:58.235Z,4.47
2022-10-08T05:45:25.636Z,3.17
2022-10-08T05:47:52.994Z,4.93
2022-10-08T05:50:20.358Z,5.88
2022-10-08T05:52:48.428Z,3.92
2022-10-08T05:55:16.424Z,7.22
2022-10-08T05:57:43.784Z,3.80
2022-10-08T06:00:13.728Z,5.85
2022-10-08T06:02:41.136Z,5.53
2022-10-08T06:05:08.917Z,5.80
2022-10-08T06:07:36.315Z,2.55
2022-10-08T06:10:03.686Z,5.20
2022-10-08T06:12:31.051Z,4.82
2022-10-08T06:14:58.404Z,6.15
2022-10-08T06:17:27.135Z,7.20
2022-10-08T06:19:54.488Z,4.93
2022-10-08T06:22:21.841Z,5.60
2022-10-08T06:24:49.206Z,4.35
2022-10-08T06:27:16.554Z,6.15
2022-10-08T06:29:44.233Z,4.45
2022-10-08T06:32:11.586Z,6.85
2022-10-08T06:34:41.975Z,3.67
2022-10-08T06:37:09.492Z,5.90
2022-10-08T06:39:36.835Z,4.85
2022-10-08T06:42:04.239Z,7.82
2022-10-08T06:44:31.571Z,3.70
2022-10-08T06:46:58.961Z,4.67
2022-10-08T06:49:27.166Z,3.78
2022-10-08T06:51:55.879Z,2.85
2022-10-08T06:54:26.051Z,4.53
2022-10-08T06:56:53.429Z,5.18
2022-10-08T06:59:20.764Z,6.50
2022-10-08T07:01:48.210Z,4.53
2022-10-08T07:04:15.603Z,3.85
2022-10-08T07:06:42.958Z,5.95
2022-10-08T07:09:13.323Z,5.15
2022-10-08T07:11:40.668Z,7.50
2022-10-08T07:14:11.003Z,4.72
2022-10-08T07:16:38.445Z,5.50
2022-10-08T07:19:05.833Z,6.32
2022-10-08T07:21:33.233Z,5.35
2022-10-08T07:24:01.492Z,5.33
2022-10-08T07:26:32.334Z,4.55
2022-10-08T07:29:00.679Z,7.25
2022-10-08T07:31:29.648Z,4.30
2022-10-08T07:33:57.255Z,3.88
2022-10-08T07:36:25.465Z,6.83
2022-10-08T07:38:56.507Z,3.42
2022-10-08T07:41:24.018Z,5.72
2022-10-08T07:43:53.591Z,3.88
2022-10-08T07:46:21.393Z,6.20
2022-10-08T07:48:48.787Z,6.33
2022-10-08T07:51:16.919Z,4.47
2022-10-08T07:53:44.929Z,4.22
2022-10-08T07:56:13.638Z,4.10
2022-10-08T07:58:41.107Z,5.82
2022-10-08T08:01:11.215Z,4.47
2022-10-08T08:03:38.838Z,4.53
2022-10-08T08:06:07.792Z,4.40
2022-10-08T08:08:35.313Z,4.15
2022-10-08T08:11:03.421Z,4.60
2022-10-08T08:13:36.535Z,5.80
2022-10-08T08:16:06.428Z,6.22
2022-10-08T08:18:35.713Z,4.72
2022-10-08T08:21:04.122Z,5.40
2022-10-08T08:23:31.491Z,4.32
2022-10-08T08:26:00.938Z,4.17
2022-10-08T08:28:28.715Z,7.28
2022-10-08T08:30:57.187Z,3.22
2022-10-08T08:33:24.683Z,4.93
2022-10-08T08:35:55.578Z,3.72
2022-10-08T08:38:22.936Z,6.53
2022-10-08T08:40:50.357Z,3.63
2022-10-08T08:43:17.688Z,5.05
2022-10-08T08:45:47.892Z,4.85
2022-10-08T08:48:18.183Z,3.35
2022-10-08T08:50:48.741Z,4.90
2022-10-08T08:53:18.508Z,5.85
2022-10-08T08:55:47.128Z,6.25
2022-10-08T08:58:19.543Z,3.83
2022-10-08T09:00:48.377Z,6.03
2022-10-08T09:03:20.036Z,2.73
2022-10-08T09:05:49.217Z,6.38
2022-10-08T09:08:19.654Z,5.70
2022-10-08T09:10:49.355Z,5.45
2022-10-08T09:13:18.795Z,5.38
2022-10-08T09:15:46.378Z,7.07
2022-10-08T09:18:15.171Z,4.03
2022-10-08T09:20:42.890Z,5.43
2022-10-08T09:23:13.964Z,7.35
2022-10-08T09:25:42.857Z,5.30
2022-10-08T09:28:10.284Z,5.23
2022-10-08T09:30:38.573Z,4.60
2022-10-08T09:33:17.344Z,4.65
2022-10-08T09:35:46.147Z,5.03
2022-10-08T09:38:20.898Z,4.85
2022-10-08T09:40:59.737Z,4.50
2022-10-08T09:43:27.151Z,6.00
2022-10-08T09:45:54.906Z,7.43
2022-10-08T09:48:23.979Z,6.57
2022-10-08T09:50:53.712Z,4.22
2022-10-08T09:53:22.645Z,18.57
2022-10-08T09:55:51.533Z,4.75
2022-10-08T09:58:20.603Z,5.75
2022-10-08T10:00:56.302Z,3.80
2022-10-08T10:03:24.201Z,4.78
2022-10-08T10:05:52.671Z,5.57
2022-10-08T10:08:38.666Z,4.70
2022-10-08T10:11:06.639Z,5.03
2022-10-08T10:13:37.066Z,6.07
2022-10-08T10:16:05.599Z,3.33
2022-10-08T10:18:36.433Z,4.30
2022-10-08T10:21:06.627Z,4.72
2022-10-08T10:23:36.087Z,5.50
2022-10-08T10:26:06.890Z,5.88
2022-10-08T10:28:40.761Z,4.28
2022-10-08T10:31:10.043Z,4.87
2022-10-08T10:33:40.688Z,4.78
2022-10-08T10:36:10.493Z,5.50
2022-10-08T10:38:43.298Z,4.03
2022-10-08T10:41:14.116Z,6.05
2022-10-08T10:43:48.104Z,4.27
2022-10-08T10:46:27.483Z,2.65
2022-10-08T10:48:55.354Z,5.75
2022-10-08T10:51:30.188Z,4.50
2022-10-08T10:54:04.333Z,5.72
2022-10-08T10:56:34.108Z,4.57
2022-10-08T10:59:08.331Z,6.57
2022-10-08T11:01:40.587Z,5.07
2022-10-08T11:04:11.245Z,4.47
2022-10-08T11:06:45.103Z,6.97
2022-10-08T11:09:16.385Z,5.20
2022-10-08T11:11:45.556Z,4.05
2022-10-08T11:14:22.461Z,6.95
2022-10-08T11:16:57.314Z,2.78
2022-10-08T11:19:33.192Z,4.53
2022-10-08T11:22:05.867Z,5.07
2022-10-08T11:24:49.812Z,6.72
2022-10-08T11:27:22.020Z,4.35
2022-10-08T11:29:56.100Z,6.13
2022-10-08T11:32:23.680Z,3.65
2022-10-08T11:34:53.464Z,5.57
2022-10-08T11:37:25.068Z,4.70
2022-10-08T11:39:58.285Z,5.38
2022-10-08T11:42:29.666Z,4.70
2022-10-08T11:45:13.509Z,4.20
2022-10-08T11:47:51.694Z,5.13
2022-10-08T11:50:23.423Z,4.75
2022-10-08T11:52:51.377Z,4.20
2022-10-08T11:55:20.263Z,4.13
2022-10-08T11:58:07.760Z,3.92
2022-10-08T12:00:39.245Z,5.23
2022-10-08T12:03:06.987Z,4.25
2022-10-08T12:05:49.465Z,3.50
2022-10-08T12:08:32.662Z,6.20
2022-10-08T12:11:23.613Z,6.22
2022-10-08T12:14:16.992Z,4.13
2022-10-08T12:17:02.924Z,7.88
2022-10-08T12:20:02.026Z,5.53
2022-10-08T12:22:43.104Z,5.35
2022-10-08T12:25:25.328Z,7.15
2022-10-08T12:27:52.655Z,5.47
2022-10-08T12:30:20.158Z,5.93
2022-10-08T12:32:54.909Z,5.68
2022-10-08T12:35:24.631Z,7.15
2022-10-08T12:38:03.654Z,3.58
2022-10-08T12:40:34.641Z,5.13
2022-10-08T12:43:21.180Z,5.25
2022-10-08T12:45:52.407Z,5.05
2022-10-08T12:48:24.077Z,6.88
2022-10-08T12:50:57.804Z,5.75
2022-10-08T12:53:25.517Z,5.57
2022-10-08T12:55:53.473Z,5.38
2022-10-08T12:58:22.666Z,6.28
2022-10-08T13:00:52.194Z,9.43
2022-10-08T13:03:20.267Z,4.47
2022-10-08T13:05:48.515Z,4.50
2022-10-08T13:08:25.473Z,5.40
2022-10-08T13:10:52.821Z,3.38
2022-10-08T13:13:33.697Z,5.15
2022-10-08T13:16:01.387Z,3.58
2022-10-08T13:18:29.639Z,5.47
2022-10-08T13:20:57.655Z,6.82
2022-10-08T13:23:26.880Z,4.97
2022-10-08T13:25:54.277Z,4.72
2022-10-08T13:28:41.657Z,4.22
2022-10-08T13:31:20.966Z,5.33
2022-10-08T13:33:48.762Z,5.18
2022-10-08T13:36:20.289Z,4.85
2022-10-08T13:38:49.073Z,3.97
2022-10-08T13:41:23.353Z,5.53
2022-10-08T13:43:50.720Z,3.90
2022-10-08T13:46:18.285Z,7.73
2022-10-08T13:48:46.000Z,6.40
2022-10-08T13:51:13.550Z,6.18
2022-10-08T13:53:45.374Z,5.65
2022-10-08T13:56:14.089Z,6.28
2022-10-08T13:58:41.508Z,4.10
2022-10-08T14:01:08.968Z,5.63
2022-10-08T14:03:36.405Z,5.45
2022-10-08T14:06:03.957Z,4.55
2022-10-08T14:08:31.929Z,5.65
2022-10-08T14:10:59.688Z,4.47
2022-10-08T14:13:29.619Z,4.70
2022-10-08T14:15:57.025Z,6.57
2022-10-08T14:18:24.474Z,3.95
2022-10-08T14:20:52.023Z,6.72
2022-10-08T14:23:20.203Z,6.40
2022-10-08T14:25:47.622Z,8.75
2022-10-08T14:28:15.141Z,4.55
2022-10-08T14:30:43.855Z,4.43
2022-10-08T14:33:11.810Z,5.05
2022-10-08T14:35:39.429Z,4.83
2022-10-08T14:38:07.504Z,6.15
2022-10-08T14:40:35.311Z,5.85
2022-10-08T14:43:02.710Z,5.60
2022-10-08T14:45:30.612Z,7.00
2022-10-08T14:47:59.704Z,6.20
2022-10-08T14:50:27.079Z,5.25
2022-10-08T14:52:54.555Z,4.78
2022-10-08T14:55:21.891Z,6.70
2022-10-08T14:57:49.248Z,9.00
2022-10-08T15:00:16.875Z,5.10
2022-10-08T15:02:44.259Z,9.38
2022-10-08T15:05:12.951Z,3.88
2022-10-08T15:07:40.268Z,5.63
2022-10-08T15:10:08.170Z,5.90
2022-10-08T15:12:35.530Z,5.97
2022-10-08T15:15:03.200Z,4.03
2022-10-08T15:17:30.558Z,4.22
2022-10-08T15:19:58.885Z,5.10
2022-10-08T15:22:27.638Z,4.57
2022-10-08T15:24:55.021Z,4.47
2022-10-08T15:27:22.731Z,4.88
2022-10-08T15:29:50.087Z,4.60
2022-10-08T15:32:17.428Z,6.95
2022-10-08T15:34:44.858Z,5.80
2022-10-08T15:37:12.607Z,5.50
2022-10-08T15:39:41.295Z,6.15
2022-10-08T15:42:08.776Z,7.03
2022-10-08T15:44:36.146Z,4.57
2022-10-08T15:47:06.314Z,8.13
2022-10-08T15:49:34.657Z,6.23
2022-10-08T15:52:02.117Z,5.97
2022-10-08T15:54:29.474Z,4.95
2022-10-08T15:56:58.225Z,6.72
2022-10-08T15:59:25.638Z,4.75
2022-10-08T16:01:52.970Z,3.97
2022-10-08T16:04:20.509Z,5.90
2022-10-08T16:06:47.871Z,7.65
2022-10-08T16:09:16.003Z,5.72
2022-10-08T16:11:43.397Z,6.68
2022-10-08T16:14:12.808Z,5.70
2022-10-08T16:16:40.711Z,6.22
2022-10-08T16:19:09.796Z,6.57
2022-10-08T16:21:38.151Z,8.55
2022-10-08T16:24:06.448Z,6.47
2022-10-08T16:26:35.294Z,8.33
2022-10-08T16:29:03.872Z,5.75
2022-10-08T16:31:33.348Z,6.15
2022-10-08T16:34:01.463Z,5.95
2022-10-08T16:36:29.829Z,5.22
2022-10-08T16:38:57.690Z,7.87
2022-10-08T16:41:25.858Z,7.03
2022-10-08T16:43:54.808Z,7.90
2022-10-08T16:46:23.294Z,9.85
2022-10-08T16:48:56.733Z,8.40
2022-10-08T16:51:24.692Z,6.60
2022-10-08T16:53:52.991Z,8.63
2022-10-08T16:56:21.620Z,5.95
2022-10-08T16:58:51.731Z,5.97
2022-10-08T17:01:19.129Z,5.88
2022-10-08T17:03:46.524Z,8.17
2022-10-08T17:06:15.802Z,4.65
2022-10-08T17:08:43.224Z,7.63
2022-10-08T17:11:11.614Z,5.90
2022-10-08T17:13:41.670Z,5.88
2022-10-08T17:16:09.522Z,4.90
2022-10-08T17:18:36.934Z,6.30
2022-10-08T17:21:04.782Z,4.85
2022-10-08T17:23:36.735Z,8.27
2022-10-08T17:26:06.156Z,5.68
2022-10-08T17:28:35.019Z,5.27
2022-10-08T17:31:03.000Z,8.68
2022-10-08T17:33:34.729Z,6.10
2022-10-08T17:36:04.124Z,5.88
2022-10-08T17:38:32.839Z,6.07
2022-10-08T17:41:00.241Z,5.67
2022-10-08T17:43:27.703Z,6.32
2022-10-08T17:45:55.174Z,6.45
2022-10-08T17:48:22.595Z,6.00
2022-10-08T17:50:50.025Z,7.00
2022-10-08T17:53:17.434Z,5.13
2022-10-08T17:55:46.181Z,6.90
2022-10-08T17:58:13.623Z,6.18
2022-10-08T18:00:41.360Z,5.00
2022-10-08T18:03:09.714Z,5.03
2022-10-08T18:05:37.843Z,5.33
2022-10-08T18:08:05.229Z,7.15
2022-10-08T18:10:32.747Z,5.85
2022-10-08T18:13:02.105Z,5.00
2022-10-08T18:15:29.524Z,6.55
2022-10-08T18:17:56.985Z,7.97
2022-10-08T18:20:24.359Z,5.05
2022-10-08T18:22:51.689Z,5.60
2022-10-08T18:25:19.097Z,7.28
2022-10-08T18:27:46.435Z,6.38
2022-10-08T18:30:15.373Z,4.40
2022-10-08T18:32:43.340Z,6.80
2022-10-08T18:35:11.765Z,5.72
2022-10-08T18:37:39.159Z,5.20
2022-10-08T18:40:07.232Z,5.22
2022-10-08T18:42:34.580Z,4.70
2022-10-08T18:45:01.953Z,4.95
2022-10-08T18:47:30.645Z,5.95
2022-10-08T18:49:58.263Z,6.80
2022-10-08T18:52:27.081Z,5.03
2022-10-08T18:54:54.452Z,8.00
2022-10-08T18:57:21.815Z,5.80
2022-10-08T18:59:49.711Z,4.80
2022-10-08T19:02:17.158Z,5.95
2022-10-08T19:04:45.952Z,6.80
2022-10-08T19:07:13.324Z,5.70
2022-10-08T19:09:40.764Z,6.07
2022-10-08T19:12:08.779Z,6.97
2022-10-08T19:14:36.211Z,6.40
2022-10-08T19:17:03.683Z,5.72
2022-10-08T19:19:31.716Z,5.87
2022-10-08T19:22:01.634Z,6.70
2022-10-08T19:24:29.418Z,7.85
2022-10-08T19:26:57.255Z,8.80
2022-10-08T19:29:25.418Z,11.90
2022-10-08T19:31:52.836Z,9.97
2022-10-08T19:34:21.510Z,9.98
2022-10-08T19:36:49.077Z,8.23
2022-10-08T19:39:18.920Z,7.28
2022-10-08T19:41:46.606Z,6.55
2022-10-08T19:44:14.399Z,7.97
2022-10-08T19:46:41.836Z,8.52
2022-10-08T19:49:09.773Z,7.45
2022-10-08T19:51:37.852Z,8.68
2022-10-08T19:54:06.102Z,8.77
2022-10-08T19:56:35.695Z,8.30
2022-10-08T19:59:03.255Z,7.43
2022-10-08T20:01:31.479Z,9.77
2022-10-08T20:04:00.484Z,9.45
2022-10-08T20:06:28.815Z,9.45
2022-10-08T20:08:56.810Z,12.43
2022-10-08T20:11:24.447Z,9.68
2022-10-08T20:13:53.829Z,8.55
2022-10-08T20:16:21.957Z,8.13
2022-10-08T20:18:50.726Z,8.45
2022-10-08T20:21:18.268Z,9.83
2022-10-08T20:23:45.646Z,11.60
2022-10-08T20:26:15.011Z,10.88
2022-10-08T20:28:42.614Z,10.40
2022-10-08T20:31:15.339Z,12.15
2022-10-08T20:33:42.895Z,8.60
2022-10-08T20:36:11.738Z,11.95
2022-10-08T20:38:39.422Z,9.73
2022-10-08T20:41:07.310Z,9.02
2022-10-08T20:43:35.564Z,10.52
2022-10-08T20:46:03.326Z,9.60
2022-10-08T20:48:33.868Z,10.60
2022-10-08T20:51:04.473Z,9.07
2022-10-08T20:53:31.955Z,9.52
2022-10-08T20:56:03.081Z,11.68
2022-10-08T20:58:30.865Z,10.90
2022-10-08T21:01:02.576Z,11.20
2022-10-08T21:03:30.033Z,9.48
2022-10-08T21:06:00.201Z,11.10
2022-10-08T21:08:27.647Z,9.95
2022-10-08T21:10:55.034Z,10.47
2022-10-08T21:13:22.476Z,12.05
2022-10-08T21:15:49.889Z,13.32
2022-10-08T21:18:17.369Z,11.60
2022-10-08T21:20:44.939Z,10.27
2022-10-08T21:23:13.650Z,10.57
2022-10-08T21:25:41.080Z,10.50
2022-10-08T21:28:08.583Z,10.77
2022-10-08T21:30:35.969Z,10.98
2022-10-08T21:33:03.427Z,11.23
2022-10-08T21:35:30.761Z,11.07
2022-10-08T21:37:58.497Z,10.40
2022-10-08T21:40:27.292Z,10.57
2022-10-08T21:42:54.670Z,9.80
2022-10-08T21:45:22.338Z,14.35
2022-10-08T21:47:50.096Z,12.43
2022-10-08T21:50:17.586Z,11.38
2022-10-08T21:52:45.110Z,11.82
2022-10-08T21:55:12.600Z,12.70
2022-10-08T21:57:41.552Z,14.27
2022-10-08T22:00:11.883Z,9.30
2022-10-08T22:02:39.682Z,12.05
2022-10-08T22:05:07.353Z,11.38
2022-10-08T22:07:34.697Z,10.65
2022-10-08T22:10:02.147Z,10.23
2022-10-08T22:12:29.511Z,9.23
2022-10-08T22:14:58.210Z,10.20
2022-10-08T22:17:25.602Z,9.73
2022-10-08T22:19:52.957Z,12.02
2022-10-08T22:22:20.348Z,10.23
2022-10-08T22:24:47.839Z,9.07
2022-10-08T22:27:15.291Z,9.15
2022-10-08T22:29:42.783Z,10.13
2022-10-08T22:32:11.724Z,10.10
2022-10-08T22:34:39.234Z,9.85
2022-10-08T22:37:06.705Z,10.07
2022-10-08T22:39:34.126Z,8.63
2022-10-08T22:42:01.490Z,11.15
2022-10-08T22:44:29.483Z,9.10
2022-10-08T22:46:56.827Z,10.55
2022-10-08T22:49:25.668Z,11.40
2022-10-08T22:51:53.540Z,9.32
2022-10-08T22:54:20.922Z,9.27
2022-10-08T22:56:48.314Z,9.18
2022-10-08T22:59:15.708Z,9.30
2022-10-08T23:01:43.115Z,9.90
2022-10-08T23:04:10.550Z,8.82
2022-10-08T23:06:39.387Z,9.40
2022-10-08T23:09:07.632Z,8.70
2022-10-08T23:11:35.820Z,8.95
2022-10-08T23:14:03.275Z,10.07
2022-10-08T23:16:32.047Z,8.95
2022-10-08T23:19:00.706Z,8.68
2022-10-08T23:21:28.554Z,7.70
2022-10-08T23:23:57.712Z,9.02
2022-10-08T23:26:25.464Z,9.50
2022-10-08T23:28:53.678Z,11.25
2022-10-08T23:31:22.526Z,8.30
2022-10-08T23:33:50.673Z,9.55
2022-10-08T23:36:19.080Z,8.95
2022-10-08T23:38:46.567Z,12.97
2022-10-08T23:41:15.459Z,11.23
2022-10-08T23:43:43.994Z,10.23
2022-10-08T23:46:12.231Z,12.48
2022-10-08T23:48:40.052Z,11.30
2022-10-08T23:51:08.002Z,10.30
2022-10-08T23:53:35.617Z,10.60
2022-10-08T23:56:03.101Z,10.02
2022-10-08T23:58:31.821Z,9.98
